Zuni, New Mexico
Current Conditions -  °F | °C
As of 10:53 AM on Saturday 20 Dec 2014 (Local Time) from KGUP Reporting Station
Few Clouds Few Clouds  
Wind Chill: 22°   Ceiling: Unl
Heat Index: 29°   Visibility: 10mi
Dew Point: 26°   Wind: 7mph
Humidity: 89%   Direction: 280°W
Pressure: 30.2"   Gusts: NA
Location:  35.07°N, 108.85°W
Report Text: KGUP 201753Z AUTO 28006KT 10SM FEW006 M02/M03 A3020 RMK AO2 SLP265 I1001 I6003 T10171033 11011 21050 50002
Loading
Personal Weather Stations






























Interactive Weather Map New forecast layout! Learn more

10-Day Weather Forecast

Advertisements
Track Severe Weather on mobile